Terminal Aerodrome Forecast
Issued by NWS

Home | Current Version | Previous Version | Text Only | Print | Product List | Glossary Off
Versions: 1 2 3 4 5 6 7 8 9 10 11 12 13 14 15 16 17 18 19 20 21 22

231
FTUS43 KABR 262144 AAB
TAFPIR
TAF AMD
KPIR 262144Z 2622/2718 08014G18KT P6SM FEW080 SCT200
     FM262300 09010KT P6SM -SHRA VCTS BKN090CB
     FM270300 04012KT P6SM -SHRA BKN090
     FM270500 08008KT P6SM BKN200
     FM271000 03004KT P6SM BKN070
     FM271200 04004KT P6SM BKN015
     FM271400 04007KT P6SM SCT025=

USA.gov is the U.S. government's official web portal to all federal, state and local government web resources and services.